sensor_id;sensor_type;location;lat;lon;timestamp;temperature;humidity
10512;DHT22;5304;48.604;2.096;2023-02-28T00:00:14;1.50;99.90
10512;DHT22;5304;48.604;2.096;2023-02-28T00:03:00;1.40;99.90
10512;DHT22;5304;48.604;2.096;2023-02-28T00:05:44;1.40;99.90
10512;DHT22;5304;48.604;2.096;2023-02-28T00:08:29;1.30;99.90
10512;DHT22;5304;48.604;2.096;2023-02-28T00:11:15;1.30;99.90
10512;DHT22;5304;48.604;2.096;2023-02-28T00:13:59;1.30;99.90
10512;DHT22;5304;48.604;2.096;2023-02-28T00:16:44;1.30;99.90
10512;DHT22;5304;48.604;2.096;2023-02-28T00:19:29;1.30;99.90
10512;DHT22;5304;48.604;2.096;2023-02-28T00:22:15;1.30;99.90
10512;DHT22;5304;48.604;2.096;2023-02-28T00:24:59;1.20;99.90
10512;DHT22;5304;48.604;2.096;2023-02-28T00:27:45;1.10;99.90
10512;DHT22;5304;48.604;2.096;2023-02-28T00:30:29;1.00;99.90
10512;DHT22;5304;48.604;2.096;2023-02-28T00:33:14;0.90;99.90
10512;DHT22;5304;48.604;2.096;2023-02-28T00:36:07;0.80;99.90
10512;DHT22;5304;48.604;2.096;2023-02-28T00:38:52;0.80;99.90
10512;DHT22;5304;48.604;2.096;2023-02-28T00:41:36;0.70;99.90
10512;DHT22;5304;48.604;2.096;2023-02-28T00:44:21;0.80;99.90
10512;DHT22;5304;48.604;2.096;2023-02-28T00:47:05;0.80;99.90
10512;DHT22;5304;48.604;2.096;2023-02-28T00:49:50;0.80;99.90
10512;DHT22;5304;48.604;2.096;2023-02-28T00:52:34;0.80;99.90
10512;DHT22;5304;48.604;2.096;2023-02-28T00:55:18;0.70;99.90
10512;DHT22;5304;48.604;2.096;2023-02-28T00:58:03;0.80;99.90
10512;DHT22;5304;48.604;2.096;2023-02-28T01:00:47;0.80;99.90
10512;DHT22;5304;48.604;2.096;2023-02-28T01:03:33;0.80;99.90
10512;DHT22;5304;48.604;2.096;2023-02-28T01:06:17;0.80;99.90
10512;DHT22;5304;48.604;2.096;2023-02-28T01:09:04;0.80;99.90
10512;DHT22;5304;48.604;2.096;2023-02-28T01:11:49;0.80;99.90
10512;DHT22;5304;48.604;2.096;2023-02-28T01:14:34;0.80;99.90
10512;DHT22;5304;48.604;2.096;2023-02-28T01:17:19;0.80;99.90
10512;DHT22;5304;48.604;2.096;2023-02-28T01:20:03;0.90;99.90
10512;DHT22;5304;48.604;2.096;2023-02-28T01:22:48;0.80;99.90
10512;DHT22;5304;48.604;2.096;2023-02-28T01:25:35;0.80;99.90
10512;DHT22;5304;48.604;2.096;2023-02-28T01:28:19;0.80;99.90
10512;DHT22;5304;48.604;2.096;2023-02-28T01:31:04;0.80;99.90
10512;DHT22;5304;48.604;2.096;2023-02-28T01:33:49;0.70;99.90
10512;DHT22;5304;48.604;2.096;2023-02-28T01:36:34;0.60;99.90
10512;DHT22;5304;48.604;2.096;2023-02-28T01:39:19;0.60;99.90
10512;DHT22;5304;48.604;2.096;2023-02-28T01:42:03;0.60;99.90
10512;DHT22;5304;48.604;2.096;2023-02-28T01:45:06;0.50;99.90
10512;DHT22;5304;48.604;2.096;2023-02-28T01:48:03;0.50;99.90
10512;DHT22;5304;48.604;2.096;2023-02-28T01:50:49;0.50;99.90
10512;DHT22;5304;48.604;2.096;2023-02-28T01:53:41;0.50;99.90
10512;DHT22;5304;48.604;2.096;2023-02-28T01:56:30;0.50;99.90
10512;DHT22;5304;48.604;2.096;2023-02-28T01:59:39;0.50;99.90
10512;DHT22;5304;48.604;2.096;2023-02-28T02:02:32;0.40;99.90
10512;DHT22;5304;48.604;2.096;2023-02-28T02:05:23;0.40;99.90
10512;DHT22;5304;48.604;2.096;2023-02-28T02:08:22;0.40;99.90
10512;DHT22;5304;48.604;2.096;2023-02-28T02:11:10;0.40;99.90
10512;DHT22;5304;48.604;2.096;2023-02-28T02:14:15;0.30;99.90
10512;DHT22;5304;48.604;2.096;2023-02-28T02:35:15;0.10;99.90
10512;DHT22;5304;48.604;2.096;2023-02-28T02:38:13;0.00;99.90
10512;DHT22;5304;48.604;2.096;2023-02-28T02:46:51;-0.10;99.90
10512;DHT22;5304;48.604;2.096;2023-02-28T02:49:39;-0.10;99.90
10512;DHT22;5304;48.604;2.096;2023-02-28T02:52:35;-0.10;99.90
10512;DHT22;5304;48.604;2.096;2023-02-28T02:55:23;0.00;99.90
10512;DHT22;5304;48.604;2.096;2023-02-28T02:58:16;0.00;99.90
10512;DHT22;5304;48.604;2.096;2023-02-28T03:01:03;0.00;99.90
10512;DHT22;5304;48.604;2.096;2023-02-28T03:03:48;0.00;99.90
10512;DHT22;5304;48.604;2.096;2023-02-28T03:06:33;0.00;99.90
10512;DHT22;5304;48.604;2.096;2023-02-28T03:09:19;0.00;99.90
10512;DHT22;5304;48.604;2.096;2023-02-28T03:12:03;-0.10;99.90
10512;DHT22;5304;48.604;2.096;2023-02-28T03:21:30;-0.10;99.90
10512;DHT22;5304;48.604;2.096;2023-02-28T03:24:12;-0.10;99.90
10512;DHT22;5304;48.604;2.096;2023-02-28T03:27:17;0.00;99.90
10512;DHT22;5304;48.604;2.096;2023-02-28T03:30:10;0.00;99.90
10512;DHT22;5304;48.604;2.096;2023-02-28T03:36:36;-0.10;99.90
10512;DHT22;5304;48.604;2.096;2023-02-28T03:39:38;-0.20;99.90
10512;DHT22;5304;48.604;2.096;2023-02-28T03:42:27;-0.20;99.90
10512;DHT22;5304;48.604;2.096;2023-02-28T03:45:17;-0.30;99.90
10512;DHT22;5304;48.604;2.096;2023-02-28T03:48:35;-0.30;99.90
10512;DHT22;5304;48.604;2.096;2023-02-28T03:51:23;-0.30;99.90
10512;DHT22;5304;48.604;2.096;2023-02-28T03:54:14;-0.30;99.90
10512;DHT22;5304;48.604;2.096;2023-02-28T04:00:08;-0.40;99.90
10512;DHT22;5304;48.604;2.096;2023-02-28T04:02:55;-0.30;99.90
10512;DHT22;5304;48.604;2.096;2023-02-28T04:05:54;-0.40;99.90
10512;DHT22;5304;48.604;2.096;2023-02-28T04:08:38;-0.40;99.90
10512;DHT22;5304;48.604;2.096;2023-02-28T04:14:23;-0.40;99.90
10512;DHT22;5304;48.604;2.096;2023-02-28T04:17:08;-0.40;99.90
10512;DHT22;5304;48.604;2.096;2023-02-28T04:19:52;-0.40;99.90
10512;DHT22;5304;48.604;2.096;2023-02-28T04:22:38;-0.40;99.90
10512;DHT22;5304;48.604;2.096;2023-02-28T04:25:22;-0.40;99.90
10512;DHT22;5304;48.604;2.096;2023-02-28T04:28:06;-0.50;99.90
10512;DHT22;5304;48.604;2.096;2023-02-28T04:31:09;-0.60;99.90
10512;DHT22;5304;48.604;2.096;2023-02-28T04:33:54;-0.50;99.90
10512;DHT22;5304;48.604;2.096;2023-02-28T04:36:39;-0.60;99.90
10512;DHT22;5304;48.604;2.096;2023-02-28T04:39:24;-0.60;99.90
10512;DHT22;5304;48.604;2.096;2023-02-28T04:42:09;-0.70;99.90
10512;DHT22;5304;48.604;2.096;2023-02-28T04:44:54;-0.70;99.90
10512;DHT22;5304;48.604;2.096;2023-02-28T04:47:39;-0.80;99.90
10512;DHT22;5304;48.604;2.096;2023-02-28T04:50:23;-0.80;99.90
10512;DHT22;5304;48.604;2.096;2023-02-28T04:53:08;-0.70;99.90
10512;DHT22;5304;48.604;2.096;2023-02-28T04:55:52;-0.70;99.90
10512;DHT22;5304;48.604;2.096;2023-02-28T04:58:37;-0.70;99.90
10512;DHT22;5304;48.604;2.096;2023-02-28T05:04:09;-0.80;99.90
10512;DHT22;5304;48.604;2.096;2023-02-28T05:06:53;-0.80;99.90
10512;DHT22;5304;48.604;2.096;2023-02-28T05:09:37;-0.80;99.90
10512;DHT22;5304;48.604;2.096;2023-02-28T05:12:22;-0.90;99.90
10512;DHT22;5304;48.604;2.096;2023-02-28T05:15:10;-0.90;99.90
10512;DHT22;5304;48.604;2.096;2023-02-28T05:17:56;-0.90;99.90
10512;DHT22;5304;48.604;2.096;2023-02-28T05:20:41;-0.90;99.90
10512;DHT22;5304;48.604;2.096;2023-02-28T05:23:25;-0.90;99.90
10512;DHT22;5304;48.604;2.096;2023-02-28T05:26:10;-0.80;99.90
10512;DHT22;5304;48.604;2.096;2023-02-28T05:28:56;-0.80;99.90
10512;DHT22;5304;48.604;2.096;2023-02-28T05:31:41;-0.80;99.90
10512;DHT22;5304;48.604;2.096;2023-02-28T05:34:26;-0.80;99.90
10512;DHT22;5304;48.604;2.096;2023-02-28T05:37:14;-0.80;99.90
10512;DHT22;5304;48.604;2.096;2023-02-28T05:39:59;-0.90;99.90
10512;DHT22;5304;48.604;2.096;2023-02-28T05:42:44;-0.90;99.90
10512;DHT22;5304;48.604;2.096;2023-02-28T05:45:29;-0.80;99.90
10512;DHT22;5304;48.604;2.096;2023-02-28T05:48:14;-0.90;99.90
10512;DHT22;5304;48.604;2.096;2023-02-28T05:50:58;-0.90;99.90
10512;DHT22;5304;48.604;2.096;2023-02-28T05:53:43;-1.00;99.90
10512;DHT22;5304;48.604;2.096;2023-02-28T05:56:28;-1.00;99.90
10512;DHT22;5304;48.604;2.096;2023-02-28T05:59:13;-1.00;99.90
10512;DHT22;5304;48.604;2.096;2023-02-28T06:01:57;-1.10;99.90
10512;DHT22;5304;48.604;2.096;2023-02-28T06:04:42;-1.00;99.90
10512;DHT22;5304;48.604;2.096;2023-02-28T06:07:27;-1.00;99.90
10512;DHT22;5304;48.604;2.096;2023-02-28T06:10:12;-1.10;99.90
10512;DHT22;5304;48.604;2.096;2023-02-28T06:13:00;-1.10;99.90
10512;DHT22;5304;48.604;2.096;2023-02-28T06:15:46;-1.20;99.90
10512;DHT22;5304;48.604;2.096;2023-02-28T06:18:31;-1.20;99.90
10512;DHT22;5304;48.604;2.096;2023-02-28T06:21:15;-1.30;99.90
10512;DHT22;5304;48.604;2.096;2023-02-28T06:24:00;-1.40;99.90
10512;DHT22;5304;48.604;2.096;2023-02-28T06:26:45;-1.40;99.90
10512;DHT22;5304;48.604;2.096;2023-02-28T06:29:30;-1.40;99.90
10512;DHT22;5304;48.604;2.096;2023-02-28T06:32:15;-1.50;99.90
10512;DHT22;5304;48.604;2.096;2023-02-28T06:34:59;-1.60;99.90
10512;DHT22;5304;48.604;2.096;2023-02-28T06:37:44;-1.60;99.90
10512;DHT22;5304;48.604;2.096;2023-02-28T06:40:28;-1.60;99.90
10512;DHT22;5304;48.604;2.096;2023-02-28T06:43:16;-1.70;99.90
10512;DHT22;5304;48.604;2.096;2023-02-28T06:46:02;-1.60;99.90
10512;DHT22;5304;48.604;2.096;2023-02-28T06:48:47;-1.60;99.90
10512;DHT22;5304;48.604;2.096;2023-02-28T06:51:31;-1.50;99.90
10512;DHT22;5304;48.604;2.096;2023-02-28T06:54:16;-1.40;99.90
10512;DHT22;5304;48.604;2.096;2023-02-28T06:57:01;-1.30;99.90
10512;DHT22;5304;48.604;2.096;2023-02-28T06:59:45;-1.30;99.90
10512;DHT22;5304;48.604;2.096;2023-02-28T07:02:29;-1.20;99.90
10512;DHT22;5304;48.604;2.096;2023-02-28T07:05:15;-1.20;99.90
10512;DHT22;5304;48.604;2.096;2023-02-28T07:07:59;-1.20;99.90
10512;DHT22;5304;48.604;2.096;2023-02-28T07:10:44;-1.10;99.90
10512;DHT22;5304;48.604;2.096;2023-02-28T07:13:28;-1.00;99.90
10512;DHT22;5304;48.604;2.096;2023-02-28T07:16:14;-0.90;99.90
10512;DHT22;5304;48.604;2.096;2023-02-28T07:18:59;-0.90;99.90
10512;DHT22;5304;48.604;2.096;2023-02-28T07:21:43;-0.90;99.90
10512;DHT22;5304;48.604;2.096;2023-02-28T07:24:28;-0.80;99.90
10512;DHT22;5304;48.604;2.096;2023-02-28T07:27:13;-0.70;99.90
10512;DHT22;5304;48.604;2.096;2023-02-28T07:30:08;-0.60;99.90
10512;DHT22;5304;48.604;2.096;2023-02-28T07:32:52;-0.50;99.90
10512;DHT22;5304;48.604;2.096;2023-02-28T07:35:39;-0.50;99.90
10512;DHT22;5304;48.604;2.096;2023-02-28T07:38:24;-0.40;99.90
10512;DHT22;5304;48.604;2.096;2023-02-28T07:41:08;-0.40;99.90
10512;DHT22;5304;48.604;2.096;2023-02-28T07:43:54;-0.30;99.90
10512;DHT22;5304;48.604;2.096;2023-02-28T07:46:40;-0.20;99.90
10512;DHT22;5304;48.604;2.096;2023-02-28T07:49:24;-0.10;99.90
10512;DHT22;5304;48.604;2.096;2023-02-28T07:52:08;0.10;99.90
10512;DHT22;5304;48.604;2.096;2023-02-28T07:54:53;0.30;99.90
10512;DHT22;5304;48.604;2.096;2023-02-28T07:57:38;0.70;99.90
10512;DHT22;5304;48.604;2.096;2023-02-28T08:00:23;1.20;99.90
10512;DHT22;5304;48.604;2.096;2023-02-28T08:03:12;1.60;99.90
10512;DHT22;5304;48.604;2.096;2023-02-28T08:05:57;1.80;99.90
10512;DHT22;5304;48.604;2.096;2023-02-28T08:08:42;2.30;99.90
10512;DHT22;5304;48.604;2.096;2023-02-28T08:11:27;2.60;99.90
10512;DHT22;5304;48.604;2.096;2023-02-28T08:14:12;3.10;99.90
10512;DHT22;5304;48.604;2.096;2023-02-28T08:16:57;3.40;99.90
10512;DHT22;5304;48.604;2.096;2023-02-28T08:19:41;3.50;99.90
10512;DHT22;5304;48.604;2.096;2023-02-28T08:22:25;3.60;99.90
10512;DHT22;5304;48.604;2.096;2023-02-28T08:25:10;3.50;99.90
10512;DHT22;5304;48.604;2.096;2023-02-28T08:27:55;3.50;99.90
10512;DHT22;5304;48.604;2.096;2023-02-28T08:30:39;3.60;99.90
10512;DHT22;5304;48.604;2.096;2023-02-28T08:33:26;4.00;99.90
10512;DHT22;5304;48.604;2.096;2023-02-28T08:36:11;4.50;99.90
10512;DHT22;5304;48.604;2.096;2023-02-28T08:38:57;5.30;99.90
10512;DHT22;5304;48.604;2.096;2023-02-28T08:41:42;6.10;99.90
10512;DHT22;5304;48.604;2.096;2023-02-28T08:44:28;6.70;99.90
10512;DHT22;5304;48.604;2.096;2023-02-28T08:47:12;7.10;99.90
10512;DHT22;5304;48.604;2.096;2023-02-28T08:49:57;8.10;99.90
10512;DHT22;5304;48.604;2.096;2023-02-28T08:52:44;8.80;99.90
10512;DHT22;5304;48.604;2.096;2023-02-28T08:55:29;9.40;99.90
10512;DHT22;5304;48.604;2.096;2023-02-28T08:58:13;9.70;99.90
10512;DHT22;5304;48.604;2.096;2023-02-28T09:00:58;10.00;99.90
10512;DHT22;5304;48.604;2.096;2023-02-28T09:03:43;10.40;99.90
10512;DHT22;5304;48.604;2.096;2023-02-28T09:06:28;9.90;99.90
10512;DHT22;5304;48.604;2.096;2023-02-28T09:09:12;9.20;99.90
10512;DHT22;5304;48.604;2.096;2023-02-28T09:11:57;9.40;99.90
10512;DHT22;5304;48.604;2.096;2023-02-28T09:14:43;8.90;99.90
10512;DHT22;5304;48.604;2.096;2023-02-28T09:17:27;9.00;99.90
10512;DHT22;5304;48.604;2.096;2023-02-28T09:20:12;8.70;99.90
10512;DHT22;5304;48.604;2.096;2023-02-28T09:22:56;9.10;99.90
10512;DHT22;5304;48.604;2.096;2023-02-28T09:25:53;9.10;99.90
10512;DHT22;5304;48.604;2.096;2023-02-28T09:28:37;8.80;99.90
10512;DHT22;5304;48.604;2.096;2023-02-28T09:31:25;9.00;99.90
10512;DHT22;5304;48.604;2.096;2023-02-28T09:34:10;8.60;99.90
10512;DHT22;5304;48.604;2.096;2023-02-28T09:36:54;7.80;99.90
10512;DHT22;5304;48.604;2.096;2023-02-28T09:39:39;7.50;99.90
10512;DHT22;5304;48.604;2.096;2023-02-28T09:42:31;7.50;99.90
10512;DHT22;5304;48.604;2.096;2023-02-28T09:45:36;7.80;99.90
10512;DHT22;5304;48.604;2.096;2023-02-28T09:48:27;8.10;99.90
10512;DHT22;5304;48.604;2.096;2023-02-28T09:54:29;7.50;99.90
10512;DHT22;5304;48.604;2.096;2023-02-28T10:00:15;6.60;99.90
10512;DHT22;5304;48.604;2.096;2023-02-28T10:06:21;6.30;99.90
10512;DHT22;5304;48.604;2.096;2023-02-28T10:09:29;5.90;99.90
10512;DHT22;5304;48.604;2.096;2023-02-28T10:12:15;5.80;99.90
10512;DHT22;5304;48.604;2.096;2023-02-28T10:15:00;5.60;99.90
10512;DHT22;5304;48.604;2.096;2023-02-28T10:17:49;5.90;99.90
10512;DHT22;5304;48.604;2.096;2023-02-28T10:20:39;5.90;99.90
10512;DHT22;5304;48.604;2.096;2023-02-28T10:23:31;5.90;99.90
10512;DHT22;5304;48.604;2.096;2023-02-28T10:26:17;5.80;99.90
10512;DHT22;5304;48.604;2.096;2023-02-28T10:29:03;6.10;99.90
10512;DHT22;5304;48.604;2.096;2023-02-28T10:31:48;6.20;99.90
10512;DHT22;5304;48.604;2.096;2023-02-28T10:34:32;6.30;99.90
10512;DHT22;5304;48.604;2.096;2023-02-28T10:37:16;6.40;99.90
10512;DHT22;5304;48.604;2.096;2023-02-28T10:40:01;6.10;99.90
10512;DHT22;5304;48.604;2.096;2023-02-28T10:43:02;5.90;99.90
10512;DHT22;5304;48.604;2.096;2023-02-28T10:49:05;5.50;99.90
10512;DHT22;5304;48.604;2.096;2023-02-28T10:51:55;5.40;99.90
10512;DHT22;5304;48.604;2.096;2023-02-28T10:54:41;5.00;99.90
10512;DHT22;5304;48.604;2.096;2023-02-28T10:57:30;5.30;99.90
10512;DHT22;5304;48.604;2.096;2023-02-28T11:00:18;5.10;99.90
10512;DHT22;5304;48.604;2.096;2023-02-28T11:03:30;4.90;99.90
10512;DHT22;5304;48.604;2.096;2023-02-28T11:06:33;5.40;99.90
10512;DHT22;5304;48.604;2.096;2023-02-28T11:09:25;5.40;99.90
10512;DHT22;5304;48.604;2.096;2023-02-28T11:12:36;5.90;99.90
10512;DHT22;5304;48.604;2.096;2023-02-28T11:15:30;6.10;99.90
10512;DHT22;5304;48.604;2.096;2023-02-28T11:21:24;5.60;99.90
10512;DHT22;5304;48.604;2.096;2023-02-28T11:24:23;5.20;99.90
10512;DHT22;5304;48.604;2.096;2023-02-28T11:33:26;6.20;99.90
10512;DHT22;5304;48.604;2.096;2023-02-28T11:36:16;6.10;99.90
10512;DHT22;5304;48.604;2.096;2023-02-28T11:39:09;5.70;99.90
10512;DHT22;5304;48.604;2.096;2023-02-28T11:51:47;5.80;99.90
10512;DHT22;5304;48.604;2.096;2023-02-28T12:13:10;6.90;99.90
10512;DHT22;5304;48.604;2.096;2023-02-28T12:21:57;7.40;99.90
10512;DHT22;5304;48.604;2.096;2023-02-28T12:24:59;7.30;99.90
10512;DHT22;5304;48.604;2.096;2023-02-28T12:27:48;7.20;99.90
10512;DHT22;5304;48.604;2.096;2023-02-28T12:30:35;6.80;99.90
10512;DHT22;5304;48.604;2.096;2023-02-28T12:33:26;6.80;99.90
10512;DHT22;5304;48.604;2.096;2023-02-28T12:36:17;6.80;99.90
10512;DHT22;5304;48.604;2.096;2023-02-28T12:42:05;6.00;99.90
10512;DHT22;5304;48.604;2.096;2023-02-28T12:48:00;5.40;99.90
10512;DHT22;5304;48.604;2.096;2023-02-28T12:50:48;5.50;99.90
10512;DHT22;5304;48.604;2.096;2023-02-28T12:57:04;5.80;99.90
10512;DHT22;5304;48.604;2.096;2023-02-28T12:59:54;6.30;99.90
10512;DHT22;5304;48.604;2.096;2023-02-28T13:02:52;6.70;99.90
10512;DHT22;5304;48.604;2.096;2023-02-28T13:09:00;6.60;99.90
10512;DHT22;5304;48.604;2.096;2023-02-28T13:11:49;6.70;99.90
10512;DHT22;5304;48.604;2.096;2023-02-28T13:14:36;6.60;99.90
10512;DHT22;5304;48.604;2.096;2023-02-28T13:17:23;6.10;99.90
10512;DHT22;5304;48.604;2.096;2023-02-28T13:20:36;5.90;99.90
10512;DHT22;5304;48.604;2.096;2023-02-28T13:24:02;6.00;99.90
10512;DHT22;5304;48.604;2.096;2023-02-28T13:29:37;6.80;99.90
10512;DHT22;5304;48.604;2.096;2023-02-28T13:38:12;6.00;99.90
10512;DHT22;5304;48.604;2.096;2023-02-28T13:44:24;5.90;99.90
10512;DHT22;5304;48.604;2.096;2023-02-28T13:47:15;6.40;99.90
10512;DHT22;5304;48.604;2.096;2023-02-28T13:56:23;6.60;99.90
10512;DHT22;5304;48.604;2.096;2023-02-28T13:59:34;6.10;99.90
10512;DHT22;5304;48.604;2.096;2023-02-28T14:02:36;5.60;99.90
10512;DHT22;5304;48.604;2.096;2023-02-28T14:05:25;5.80;99.90
10512;DHT22;5304;48.604;2.096;2023-02-28T14:08:18;6.00;99.90
10512;DHT22;5304;48.604;2.096;2023-02-28T14:11:08;6.40;99.90
10512;DHT22;5304;48.604;2.096;2023-02-28T14:13:53;6.40;99.90
10512;DHT22;5304;48.604;2.096;2023-02-28T14:16:48;6.40;99.90
10512;DHT22;5304;48.604;2.096;2023-02-28T14:19:36;6.00;99.90
10512;DHT22;5304;48.604;2.096;2023-02-28T14:22:28;5.70;99.90
10512;DHT22;5304;48.604;2.096;2023-02-28T14:28:14;5.80;99.90
10512;DHT22;5304;48.604;2.096;2023-02-28T14:37:05;6.20;99.90
10512;DHT22;5304;48.604;2.096;2023-02-28T14:39:53;6.10;99.90
10512;DHT22;5304;48.604;2.096;2023-02-28T14:42:38;5.80;99.90
10512;DHT22;5304;48.604;2.096;2023-02-28T14:45:30;5.70;99.90
10512;DHT22;5304;48.604;2.096;2023-02-28T14:48:16;6.00;99.90
10512;DHT22;5304;48.604;2.096;2023-02-28T14:51:01;5.80;99.90
10512;DHT22;5304;48.604;2.096;2023-02-28T14:53:52;5.40;99.90
10512;DHT22;5304;48.604;2.096;2023-02-28T14:56:38;5.10;99.90
10512;DHT22;5304;48.604;2.096;2023-02-28T14:59:29;5.10;99.90
10512;DHT22;5304;48.604;2.096;2023-02-28T15:02:23;5.40;99.90
10512;DHT22;5304;48.604;2.096;2023-02-28T15:05:18;5.70;99.90
10512;DHT22;5304;48.604;2.096;2023-02-28T15:08:15;6.00;99.90
10512;DHT22;5304;48.604;2.096;2023-02-28T15:11:03;6.40;99.90
10512;DHT22;5304;48.604;2.096;2023-02-28T15:13:51;6.10;99.90
10512;DHT22;5304;48.604;2.096;2023-02-28T15:16:41;5.70;99.90
10512;DHT22;5304;48.604;2.096;2023-02-28T15:19:34;5.40;99.90
10512;DHT22;5304;48.604;2.096;2023-02-28T15:22:34;5.30;99.90
10512;DHT22;5304;48.604;2.096;2023-02-28T15:25:21;5.20;99.90
10512;DHT22;5304;48.604;2.096;2023-02-28T15:28:16;5.10;99.90
10512;DHT22;5304;48.604;2.096;2023-02-28T15:31:03;5.00;99.90
10512;DHT22;5304;48.604;2.096;2023-02-28T15:34:06;4.80;99.90
10512;DHT22;5304;48.604;2.096;2023-02-28T15:36:57;4.70;99.90
10512;DHT22;5304;48.604;2.096;2023-02-28T15:39:42;4.60;99.90
10512;DHT22;5304;48.604;2.096;2023-02-28T15:42:29;4.50;99.90
10512;DHT22;5304;48.604;2.096;2023-02-28T15:45:36;4.60;99.90
10512;DHT22;5304;48.604;2.096;2023-02-28T15:48:28;4.70;99.90
10512;DHT22;5304;48.604;2.096;2023-02-28T15:51:33;5.00;99.90
10512;DHT22;5304;48.604;2.096;2023-02-28T15:54:28;5.20;99.90
10512;DHT22;5304;48.604;2.096;2023-02-28T15:57:25;5.50;99.90
10512;DHT22;5304;48.604;2.096;2023-02-28T16:00:13;5.60;99.90
10512;DHT22;5304;48.604;2.096;2023-02-28T16:02:58;5.50;99.90
10512;DHT22;5304;48.604;2.096;2023-02-28T16:05:42;5.40;99.90
10512;DHT22;5304;48.604;2.096;2023-02-28T16:08:27;5.20;99.90
10512;DHT22;5304;48.604;2.096;2023-02-28T16:11:11;5.20;99.90
10512;DHT22;5304;48.604;2.096;2023-02-28T16:13:57;5.10;99.90
10512;DHT22;5304;48.604;2.096;2023-02-28T16:16:47;4.90;99.90
10512;DHT22;5304;48.604;2.096;2023-02-28T16:19:32;4.80;99.90
10512;DHT22;5304;48.604;2.096;2023-02-28T16:22:16;4.80;99.90
10512;DHT22;5304;48.604;2.096;2023-02-28T16:25:01;4.80;99.90
10512;DHT22;5304;48.604;2.096;2023-02-28T16:27:50;4.70;99.90
10512;DHT22;5304;48.604;2.096;2023-02-28T16:30:37;4.50;99.90
10512;DHT22;5304;48.604;2.096;2023-02-28T16:33:21;4.30;99.90
10512;DHT22;5304;48.604;2.096;2023-02-28T16:36:08;4.30;99.90
10512;DHT22;5304;48.604;2.096;2023-02-28T16:38:54;4.30;99.90
10512;DHT22;5304;48.604;2.096;2023-02-28T16:41:42;4.30;99.90
10512;DHT22;5304;48.604;2.096;2023-02-28T16:44:29;4.30;99.90
10512;DHT22;5304;48.604;2.096;2023-02-28T16:47:14;4.20;99.90
10512;DHT22;5304;48.604;2.096;2023-02-28T16:49:59;4.30;99.90
10512;DHT22;5304;48.604;2.096;2023-02-28T16:52:44;4.30;99.90
10512;DHT22;5304;48.604;2.096;2023-02-28T16:55:28;4.20;99.90
10512;DHT22;5304;48.604;2.096;2023-02-28T16:58:15;4.10;99.90
10512;DHT22;5304;48.604;2.096;2023-02-28T17:00:59;4.00;99.90
10512;DHT22;5304;48.604;2.096;2023-02-28T17:03:44;4.00;99.90
10512;DHT22;5304;48.604;2.096;2023-02-28T17:06:29;4.00;99.90
10512;DHT22;5304;48.604;2.096;2023-02-28T17:09:21;3.90;99.90
10512;DHT22;5304;48.604;2.096;2023-02-28T17:12:06;3.90;99.90
10512;DHT22;5304;48.604;2.096;2023-02-28T17:14:51;3.80;99.90
10512;DHT22;5304;48.604;2.096;2023-02-28T17:17:36;3.80;99.90
10512;DHT22;5304;48.604;2.096;2023-02-28T17:20:21;3.70;99.90
10512;DHT22;5304;48.604;2.096;2023-02-28T17:23:11;3.70;99.90
10512;DHT22;5304;48.604;2.096;2023-02-28T17:25:55;3.70;99.90
10512;DHT22;5304;48.604;2.096;2023-02-28T17:28:40;3.70;99.90
10512;DHT22;5304;48.604;2.096;2023-02-28T17:31:26;3.60;99.90
10512;DHT22;5304;48.604;2.096;2023-02-28T17:34:11;3.50;99.90
10512;DHT22;5304;48.604;2.096;2023-02-28T17:37:02;3.50;99.90
10512;DHT22;5304;48.604;2.096;2023-02-28T17:39:47;3.40;99.90
10512;DHT22;5304;48.604;2.096;2023-02-28T17:42:31;3.30;99.90
10512;DHT22;5304;48.604;2.096;2023-02-28T17:45:15;3.30;99.90
10512;DHT22;5304;48.604;2.096;2023-02-28T17:48:00;3.20;99.90
10512;DHT22;5304;48.604;2.096;2023-02-28T17:50:45;3.20;99.90
10512;DHT22;5304;48.604;2.096;2023-02-28T17:53:29;3.10;99.90
10512;DHT22;5304;48.604;2.096;2023-02-28T17:59:02;3.30;99.90
10512;DHT22;5304;48.604;2.096;2023-02-28T18:01:47;3.30;99.90
10512;DHT22;5304;48.604;2.096;2023-02-28T18:04:31;3.40;99.90
10512;DHT22;5304;48.604;2.096;2023-02-28T18:07:21;3.40;99.90
10512;DHT22;5304;48.604;2.096;2023-02-28T18:10:11;3.40;99.90
10512;DHT22;5304;48.604;2.096;2023-02-28T18:12:56;3.30;99.90
10512;DHT22;5304;48.604;2.096;2023-02-28T18:15:41;3.30;99.90
10512;DHT22;5304;48.604;2.096;2023-02-28T18:18:26;3.30;99.90
10512;DHT22;5304;48.604;2.096;2023-02-28T18:21:12;3.40;99.90
10512;DHT22;5304;48.604;2.096;2023-02-28T18:23:57;3.40;99.90
10512;DHT22;5304;48.604;2.096;2023-02-28T18:26:44;3.50;99.90
10512;DHT22;5304;48.604;2.096;2023-02-28T18:29:29;3.60;99.90
10512;DHT22;5304;48.604;2.096;2023-02-28T18:32:14;3.60;99.90
10512;DHT22;5304;48.604;2.096;2023-02-28T18:34:59;3.60;99.90
10512;DHT22;5304;48.604;2.096;2023-02-28T18:37:43;3.60;99.90
10512;DHT22;5304;48.604;2.096;2023-02-28T18:40:27;3.60;99.90
10512;DHT22;5304;48.604;2.096;2023-02-28T18:43:12;3.60;99.90
10512;DHT22;5304;48.604;2.096;2023-02-28T18:45:57;3.60;99.90
10512;DHT22;5304;48.604;2.096;2023-02-28T18:48:42;3.60;99.90
10512;DHT22;5304;48.604;2.096;2023-02-28T18:51:28;3.60;99.90
10512;DHT22;5304;48.604;2.096;2023-02-28T18:54:15;3.70;99.90
10512;DHT22;5304;48.604;2.096;2023-02-28T18:56:59;3.70;99.90
10512;DHT22;5304;48.604;2.096;2023-02-28T18:59:44;3.70;99.90
10512;DHT22;5304;48.604;2.096;2023-02-28T19:02:28;3.60;99.90
10512;DHT22;5304;48.604;2.096;2023-02-28T19:05:12;3.60;99.90
10512;DHT22;5304;48.604;2.096;2023-02-28T19:07:57;3.50;99.90
10512;DHT22;5304;48.604;2.096;2023-02-28T19:10:42;3.50;99.90
10512;DHT22;5304;48.604;2.096;2023-02-28T19:13:26;3.50;99.90
10512;DHT22;5304;48.604;2.096;2023-02-28T19:16:14;3.50;99.90
10512;DHT22;5304;48.604;2.096;2023-02-28T19:18:58;3.50;99.90
10512;DHT22;5304;48.604;2.096;2023-02-28T19:21:42;3.50;99.90
10512;DHT22;5304;48.604;2.096;2023-02-28T19:24:27;3.50;99.90
10512;DHT22;5304;48.604;2.096;2023-02-28T19:27:11;3.50;99.90
10512;DHT22;5304;48.604;2.096;2023-02-28T19:29:55;3.50;99.90
10512;DHT22;5304;48.604;2.096;2023-02-28T19:32:42;3.50;99.90
10512;DHT22;5304;48.604;2.096;2023-02-28T19:35:28;3.60;99.90
10512;DHT22;5304;48.604;2.096;2023-02-28T19:38:13;3.60;99.90
10512;DHT22;5304;48.604;2.096;2023-02-28T19:41:02;3.60;99.90
10512;DHT22;5304;48.604;2.096;2023-02-28T19:43:47;3.60;99.90
10512;DHT22;5304;48.604;2.096;2023-02-28T19:46:31;3.60;99.90
10512;DHT22;5304;48.604;2.096;2023-02-28T19:49:16;3.60;99.90
10512;DHT22;5304;48.604;2.096;2023-02-28T19:52:02;3.60;99.90
10512;DHT22;5304;48.604;2.096;2023-02-28T19:54:47;3.60;99.90
10512;DHT22;5304;48.604;2.096;2023-02-28T19:57:31;3.60;99.90
10512;DHT22;5304;48.604;2.096;2023-02-28T20:00:16;3.50;99.90
10512;DHT22;5304;48.604;2.096;2023-02-28T20:03:02;3.60;99.90
10512;DHT22;5304;48.604;2.096;2023-02-28T20:05:46;3.60;99.90
10512;DHT22;5304;48.604;2.096;2023-02-28T20:08:31;3.60;99.90
10512;DHT22;5304;48.604;2.096;2023-02-28T20:11:16;3.70;99.90
10512;DHT22;5304;48.604;2.096;2023-02-28T20:14:00;3.60;99.90
10512;DHT22;5304;48.604;2.096;2023-02-28T20:16:48;3.70;99.90
10512;DHT22;5304;48.604;2.096;2023-02-28T20:19:32;3.70;99.90
10512;DHT22;5304;48.604;2.096;2023-02-28T20:22:17;3.60;99.90
10512;DHT22;5304;48.604;2.096;2023-02-28T20:25:01;3.60;99.90
10512;DHT22;5304;48.604;2.096;2023-02-28T20:27:46;3.50;99.90
10512;DHT22;5304;48.604;2.096;2023-02-28T20:30:30;3.60;99.90